sensor_id;sensor_type;location;lat;lon;timestamp;P1;durP1;ratioP1;P2;durP2;ratioP2
66966;SDS011;53900;51.468;-2.586;2023-04-25T00:01:23;12.65;;;3.28;;
66966;SDS011;53900;51.468;-2.586;2023-04-25T00:03:49;13.75;;;3.50;;
66966;SDS011;53900;51.468;-2.586;2023-04-25T00:06:14;9.68;;;2.95;;
66966;SDS011;53900;51.468;-2.586;2023-04-25T00:08:40;9.85;;;2.60;;
66966;SDS011;53900;51.468;-2.586;2023-04-25T00:11:05;9.93;;;2.40;;
66966;SDS011;53900;51.468;-2.586;2023-04-25T00:13:30;7.80;;;2.88;;
66966;SDS011;53900;51.468;-2.586;2023-04-25T00:15:55;7.65;;;2.42;;
66966;SDS011;53900;51.468;-2.586;2023-04-25T00:18:25;12.00;;;3.08;;
66966;SDS011;53900;51.468;-2.586;2023-04-25T00:20:53;15.85;;;2.80;;
66966;SDS011;53900;51.468;-2.586;2023-04-25T00:23:18;6.68;;;2.33;;
66966;SDS011;53900;51.468;-2.586;2023-04-25T00:25:44;11.52;;;2.67;;
66966;SDS011;53900;51.468;-2.586;2023-04-25T00:28:10;7.63;;;2.60;;
66966;SDS011;53900;51.468;-2.586;2023-04-25T00:30:35;8.55;;;2.90;;
66966;SDS011;53900;51.468;-2.586;2023-04-25T00:33:00;13.73;;;2.97;;
66966;SDS011;53900;51.468;-2.586;2023-04-25T00:35:25;7.68;;;2.88;;
66966;SDS011;53900;51.468;-2.586;2023-04-25T00:37:50;9.65;;;3.22;;
66966;SDS011;53900;51.468;-2.586;2023-04-25T00:40:16;11.43;;;3.45;;
66966;SDS011;53900;51.468;-2.586;2023-04-25T00:42:41;10.40;;;3.47;;
66966;SDS011;53900;51.468;-2.586;2023-04-25T00:45:06;14.82;;;3.85;;
66966;SDS011;53900;51.468;-2.586;2023-04-25T00:47:32;16.13;;;3.55;;
66966;SDS011;53900;51.468;-2.586;2023-04-25T00:49:57;8.63;;;3.20;;
66966;SDS011;53900;51.468;-2.586;2023-04-25T00:52:23;11.13;;;3.20;;
66966;SDS011;53900;51.468;-2.586;2023-04-25T00:54:48;10.80;;;3.28;;
66966;SDS011;53900;51.468;-2.586;2023-04-25T00:57:13;9.68;;;3.50;;
66966;SDS011;53900;51.468;-2.586;2023-04-25T00:59:38;8.85;;;3.40;;
66966;SDS011;53900;51.468;-2.586;2023-04-25T01:02:07;15.32;;;4.18;;
66966;SDS011;53900;51.468;-2.586;2023-04-25T01:04:34;10.82;;;3.85;;
66966;SDS011;53900;51.468;-2.586;2023-04-25T01:06:59;11.38;;;3.75;;
66966;SDS011;53900;51.468;-2.586;2023-04-25T01:09:24;15.18;;;4.18;;
66966;SDS011;53900;51.468;-2.586;2023-04-25T01:11:49;9.77;;;3.92;;
66966;SDS011;53900;51.468;-2.586;2023-04-25T01:14:15;10.25;;;4.50;;
66966;SDS011;53900;51.468;-2.586;2023-04-25T01:16:40;11.88;;;4.15;;
66966;SDS011;53900;51.468;-2.586;2023-04-25T01:19:09;9.75;;;3.90;;
66966;SDS011;53900;51.468;-2.586;2023-04-25T01:21:37;13.20;;;4.25;;
66966;SDS011;53900;51.468;-2.586;2023-04-25T01:24:03;13.80;;;4.80;;
66966;SDS011;53900;51.468;-2.586;2023-04-25T01:26:28;8.93;;;3.38;;
66966;SDS011;53900;51.468;-2.586;2023-04-25T01:28:54;10.27;;;3.92;;
66966;SDS011;53900;51.468;-2.586;2023-04-25T01:31:19;10.32;;;3.80;;
66966;SDS011;53900;51.468;-2.586;2023-04-25T01:33:45;10.43;;;4.03;;
66966;SDS011;53900;51.468;-2.586;2023-04-25T01:36:10;8.68;;;4.50;;
66966;SDS011;53900;51.468;-2.586;2023-04-25T01:38:35;7.18;;;3.38;;
66966;SDS011;53900;51.468;-2.586;2023-04-25T01:41:01;12.38;;;4.05;;
66966;SDS011;53900;51.468;-2.586;2023-04-25T01:43:26;12.80;;;3.92;;
66966;SDS011;53900;51.468;-2.586;2023-04-25T01:45:51;14.25;;;4.40;;
66966;SDS011;53900;51.468;-2.586;2023-04-25T01:48:17;14.07;;;4.20;;
66966;SDS011;53900;51.468;-2.586;2023-04-25T01:50:42;16.95;;;3.70;;
66966;SDS011;53900;51.468;-2.586;2023-04-25T01:53:08;9.18;;;3.67;;
66966;SDS011;53900;51.468;-2.586;2023-04-25T01:55:33;10.50;;;4.18;;
66966;SDS011;53900;51.468;-2.586;2023-04-25T01:57:59;16.65;;;4.57;;
66966;SDS011;53900;51.468;-2.586;2023-04-25T02:00:25;10.10;;;4.07;;
66966;SDS011;53900;51.468;-2.586;2023-04-25T02:02:50;13.02;;;3.55;;
66966;SDS011;53900;51.468;-2.586;2023-04-25T02:05:18;12.85;;;4.07;;
66966;SDS011;53900;51.468;-2.586;2023-04-25T02:07:43;10.68;;;4.80;;
66966;SDS011;53900;51.468;-2.586;2023-04-25T02:10:08;10.52;;;4.38;;
66966;SDS011;53900;51.468;-2.586;2023-04-25T02:12:35;16.27;;;5.75;;
66966;SDS011;53900;51.468;-2.586;2023-04-25T02:15:00;11.88;;;4.32;;
66966;SDS011;53900;51.468;-2.586;2023-04-25T02:17:25;18.17;;;4.85;;
66966;SDS011;53900;51.468;-2.586;2023-04-25T02:19:51;14.63;;;4.22;;
66966;SDS011;53900;51.468;-2.586;2023-04-25T02:22:16;9.95;;;4.18;;
66966;SDS011;53900;51.468;-2.586;2023-04-25T02:24:41;9.82;;;4.28;;
66966;SDS011;53900;51.468;-2.586;2023-04-25T02:27:06;12.48;;;4.25;;
66966;SDS011;53900;51.468;-2.586;2023-04-25T02:29:32;11.07;;;4.47;;
66966;SDS011;53900;51.468;-2.586;2023-04-25T02:31:57;11.85;;;4.60;;
66966;SDS011;53900;51.468;-2.586;2023-04-25T02:34:23;15.02;;;4.43;;
66966;SDS011;53900;51.468;-2.586;2023-04-25T02:36:48;11.77;;;4.70;;
66966;SDS011;53900;51.468;-2.586;2023-04-25T02:39:14;10.45;;;4.38;;
66966;SDS011;53900;51.468;-2.586;2023-04-25T02:41:39;14.23;;;4.70;;
66966;SDS011;53900;51.468;-2.586;2023-04-25T02:44:05;11.63;;;4.95;;
66966;SDS011;53900;51.468;-2.586;2023-04-25T02:46:30;11.95;;;4.18;;
66966;SDS011;53900;51.468;-2.586;2023-04-25T02:48:55;8.85;;;3.90;;
66966;SDS011;53900;51.468;-2.586;2023-04-25T02:51:20;13.32;;;4.65;;
66966;SDS011;53900;51.468;-2.586;2023-04-25T02:53:46;11.40;;;4.03;;
66966;SDS011;53900;51.468;-2.586;2023-04-25T02:56:11;13.05;;;3.88;;
66966;SDS011;53900;51.468;-2.586;2023-04-25T02:58:36;11.23;;;3.63;;
66966;SDS011;53900;51.468;-2.586;2023-04-25T03:01:01;12.88;;;3.70;;
66966;SDS011;53900;51.468;-2.586;2023-04-25T03:03:26;12.68;;;3.63;;
66966;SDS011;53900;51.468;-2.586;2023-04-25T03:05:52;10.30;;;3.92;;
66966;SDS011;53900;51.468;-2.586;2023-04-25T03:08:17;8.02;;;3.60;;
66966;SDS011;53900;51.468;-2.586;2023-04-25T03:10:43;9.90;;;3.33;;
66966;SDS011;53900;51.468;-2.586;2023-04-25T03:13:08;12.20;;;3.80;;
66966;SDS011;53900;51.468;-2.586;2023-04-25T03:15:34;9.43;;;3.58;;
66966;SDS011;53900;51.468;-2.586;2023-04-25T03:17:59;9.80;;;4.07;;
66966;SDS011;53900;51.468;-2.586;2023-04-25T03:20:24;9.55;;;2.95;;
66966;SDS011;53900;51.468;-2.586;2023-04-25T03:22:50;16.40;;;2.97;;
66966;SDS011;53900;51.468;-2.586;2023-04-25T03:25:15;10.52;;;2.70;;
66966;SDS011;53900;51.468;-2.586;2023-04-25T03:27:40;8.95;;;2.17;;
66966;SDS011;53900;51.468;-2.586;2023-04-25T03:30:06;13.10;;;3.10;;
66966;SDS011;53900;51.468;-2.586;2023-04-25T03:32:33;12.27;;;2.70;;
66966;SDS011;53900;51.468;-2.586;2023-04-25T03:34:58;9.15;;;2.53;;
66966;SDS011;53900;51.468;-2.586;2023-04-25T03:37:24;10.15;;;2.65;;
66966;SDS011;53900;51.468;-2.586;2023-04-25T03:39:49;11.63;;;2.63;;
66966;SDS011;53900;51.468;-2.586;2023-04-25T03:42:14;8.55;;;2.47;;
66966;SDS011;53900;51.468;-2.586;2023-04-25T03:44:39;11.55;;;2.33;;
66966;SDS011;53900;51.468;-2.586;2023-04-25T03:47:05;6.72;;;2.17;;
66966;SDS011;53900;51.468;-2.586;2023-04-25T03:49:31;11.05;;;2.58;;
66966;SDS011;53900;51.468;-2.586;2023-04-25T03:51:56;8.82;;;2.13;;
66966;SDS011;53900;51.468;-2.586;2023-04-25T03:54:21;10.25;;;2.72;;
66966;SDS011;53900;51.468;-2.586;2023-04-25T03:56:46;15.45;;;2.65;;
66966;SDS011;53900;51.468;-2.586;2023-04-25T03:59:12;12.45;;;2.35;;
66966;SDS011;53900;51.468;-2.586;2023-04-25T04:01:37;10.25;;;2.25;;
66966;SDS011;53900;51.468;-2.586;2023-04-25T04:04:02;6.82;;;2.20;;
66966;SDS011;53900;51.468;-2.586;2023-04-25T04:06:27;14.57;;;2.72;;
66966;SDS011;53900;51.468;-2.586;2023-04-25T04:08:53;10.05;;;2.63;;
66966;SDS011;53900;51.468;-2.586;2023-04-25T04:11:18;10.93;;;2.60;;
66966;SDS011;53900;51.468;-2.586;2023-04-25T04:13:43;13.45;;;3.05;;
66966;SDS011;53900;51.468;-2.586;2023-04-25T04:16:09;10.55;;;3.25;;
66966;SDS011;53900;51.468;-2.586;2023-04-25T04:18:34;7.55;;;2.20;;
66966;SDS011;53900;51.468;-2.586;2023-04-25T04:21:00;12.70;;;3.08;;
66966;SDS011;53900;51.468;-2.586;2023-04-25T04:23:25;13.38;;;2.50;;
66966;SDS011;53900;51.468;-2.586;2023-04-25T04:25:52;11.98;;;2.33;;
66966;SDS011;53900;51.468;-2.586;2023-04-25T04:28:18;11.07;;;2.80;;
66966;SDS011;53900;51.468;-2.586;2023-04-25T04:30:44;8.63;;;2.53;;
66966;SDS011;53900;51.468;-2.586;2023-04-25T04:33:11;12.55;;;2.35;;
66966;SDS011;53900;51.468;-2.586;2023-04-25T04:35:37;8.38;;;2.83;;
66966;SDS011;53900;51.468;-2.586;2023-04-25T04:38:02;9.73;;;2.88;;
66966;SDS011;53900;51.468;-2.586;2023-04-25T04:40:27;8.07;;;2.20;;
66966;SDS011;53900;51.468;-2.586;2023-04-25T04:42:52;9.52;;;2.42;;
66966;SDS011;53900;51.468;-2.586;2023-04-25T04:45:18;8.40;;;1.90;;
66966;SDS011;53900;51.468;-2.586;2023-04-25T04:47:43;11.73;;;2.15;;
66966;SDS011;53900;51.468;-2.586;2023-04-25T04:50:09;10.93;;;2.35;;
66966;SDS011;53900;51.468;-2.586;2023-04-25T04:52:35;11.55;;;2.70;;
66966;SDS011;53900;51.468;-2.586;2023-04-25T04:55:00;14.65;;;2.67;;
66966;SDS011;53900;51.468;-2.586;2023-04-25T04:57:26;10.88;;;3.22;;
66966;SDS011;53900;51.468;-2.586;2023-04-25T04:59:52;12.82;;;3.17;;
66966;SDS011;53900;51.468;-2.586;2023-04-25T05:02:17;8.68;;;2.97;;
66966;SDS011;53900;51.468;-2.586;2023-04-25T05:04:42;7.40;;;2.90;;
66966;SDS011;53900;51.468;-2.586;2023-04-25T05:07:07;10.35;;;3.53;;
66966;SDS011;53900;51.468;-2.586;2023-04-25T05:09:32;10.75;;;3.63;;
66966;SDS011;53900;51.468;-2.586;2023-04-25T05:11:58;14.68;;;3.67;;
66966;SDS011;53900;51.468;-2.586;2023-04-25T05:14:23;8.23;;;3.70;;
66966;SDS011;53900;51.468;-2.586;2023-04-25T05:16:48;8.15;;;3.55;;
66966;SDS011;53900;51.468;-2.586;2023-04-25T05:19:13;13.98;;;3.90;;
66966;SDS011;53900;51.468;-2.586;2023-04-25T05:21:39;12.63;;;3.72;;
66966;SDS011;53900;51.468;-2.586;2023-04-25T05:24:04;15.73;;;7.82;;
66966;SDS011;53900;51.468;-2.586;2023-04-25T05:26:29;18.77;;;8.27;;
66966;SDS011;53900;51.468;-2.586;2023-04-25T05:28:56;12.20;;;4.95;;
66966;SDS011;53900;51.468;-2.586;2023-04-25T05:31:21;16.92;;;4.03;;
66966;SDS011;53900;51.468;-2.586;2023-04-25T05:33:46;14.20;;;4.05;;
66966;SDS011;53900;51.468;-2.586;2023-04-25T05:36:12;11.13;;;3.78;;
66966;SDS011;53900;51.468;-2.586;2023-04-25T05:38:37;8.80;;;3.70;;
66966;SDS011;53900;51.468;-2.586;2023-04-25T05:41:02;12.60;;;3.55;;
66966;SDS011;53900;51.468;-2.586;2023-04-25T05:43:27;14.85;;;4.05;;
66966;SDS011;53900;51.468;-2.586;2023-04-25T05:45:52;14.30;;;4.10;;
66966;SDS011;53900;51.468;-2.586;2023-04-25T05:48:18;9.88;;;3.50;;
66966;SDS011;53900;51.468;-2.586;2023-04-25T05:50:43;11.25;;;4.07;;
66966;SDS011;53900;51.468;-2.586;2023-04-25T05:53:08;14.55;;;4.40;;
66966;SDS011;53900;51.468;-2.586;2023-04-25T05:55:34;11.70;;;4.47;;
66966;SDS011;53900;51.468;-2.586;2023-04-25T05:57:59;13.55;;;3.90;;
66966;SDS011;53900;51.468;-2.586;2023-04-25T06:00:24;12.48;;;3.58;;
66966;SDS011;53900;51.468;-2.586;2023-04-25T06:02:49;12.80;;;4.47;;
66966;SDS011;53900;51.468;-2.586;2023-04-25T06:05:15;11.68;;;4.25;;
66966;SDS011;53900;51.468;-2.586;2023-04-25T06:07:40;10.02;;;3.83;;
66966;SDS011;53900;51.468;-2.586;2023-04-25T06:10:05;13.23;;;3.53;;
66966;SDS011;53900;51.468;-2.586;2023-04-25T06:12:32;12.13;;;4.03;;
66966;SDS011;53900;51.468;-2.586;2023-04-25T06:14:57;9.18;;;3.83;;
66966;SDS011;53900;51.468;-2.586;2023-04-25T06:17:23;12.40;;;3.97;;
66966;SDS011;53900;51.468;-2.586;2023-04-25T06:19:48;11.20;;;3.63;;
66966;SDS011;53900;51.468;-2.586;2023-04-25T06:22:13;16.38;;;3.83;;
66966;SDS011;53900;51.468;-2.586;2023-04-25T06:24:38;10.73;;;2.80;;
66966;SDS011;53900;51.468;-2.586;2023-04-25T06:27:04;10.95;;;2.97;;
66966;SDS011;53900;51.468;-2.586;2023-04-25T06:29:29;8.90;;;3.53;;
66966;SDS011;53900;51.468;-2.586;2023-04-25T06:31:54;8.32;;;3.17;;
66966;SDS011;53900;51.468;-2.586;2023-04-25T06:34:19;9.60;;;2.88;;
66966;SDS011;53900;51.468;-2.586;2023-04-25T06:36:45;9.77;;;2.60;;
66966;SDS011;53900;51.468;-2.586;2023-04-25T06:39:10;8.43;;;2.95;;
66966;SDS011;53900;51.468;-2.586;2023-04-25T06:41:35;11.48;;;3.28;;
66966;SDS011;53900;51.468;-2.586;2023-04-25T06:44:01;12.98;;;3.17;;
66966;SDS011;53900;51.468;-2.586;2023-04-25T06:46:26;9.93;;;2.72;;
66966;SDS011;53900;51.468;-2.586;2023-04-25T06:48:52;9.18;;;3.08;;
66966;SDS011;53900;51.468;-2.586;2023-04-25T06:51:17;15.10;;;3.20;;
66966;SDS011;53900;51.468;-2.586;2023-04-25T06:53:42;11.02;;;3.05;;
66966;SDS011;53900;51.468;-2.586;2023-04-25T06:56:07;8.82;;;2.55;;
66966;SDS011;53900;51.468;-2.586;2023-04-25T06:58:33;11.07;;;3.45;;
66966;SDS011;53900;51.468;-2.586;2023-04-25T07:00:58;14.68;;;3.30;;
66966;SDS011;53900;51.468;-2.586;2023-04-25T07:03:23;11.20;;;3.00;;
66966;SDS011;53900;51.468;-2.586;2023-04-25T07:05:49;9.20;;;2.90;;
66966;SDS011;53900;51.468;-2.586;2023-04-25T07:08:14;12.77;;;2.80;;
66966;SDS011;53900;51.468;-2.586;2023-04-25T07:10:39;11.85;;;2.47;;
66966;SDS011;53900;51.468;-2.586;2023-04-25T07:13:05;9.48;;;2.40;;
66966;SDS011;53900;51.468;-2.586;2023-04-25T07:15:30;10.18;;;2.30;;
66966;SDS011;53900;51.468;-2.586;2023-04-25T07:17:55;10.35;;;2.63;;
66966;SDS011;53900;51.468;-2.586;2023-04-25T07:20:22;9.50;;;2.65;;
66966;SDS011;53900;51.468;-2.586;2023-04-25T07:22:47;12.52;;;2.72;;
66966;SDS011;53900;51.468;-2.586;2023-04-25T07:25:12;7.88;;;1.75;;
66966;SDS011;53900;51.468;-2.586;2023-04-25T07:27:37;7.20;;;2.40;;
66966;SDS011;53900;51.468;-2.586;2023-04-25T07:30:03;13.43;;;2.17;;
66966;SDS011;53900;51.468;-2.586;2023-04-25T07:32:28;8.30;;;2.10;;
66966;SDS011;53900;51.468;-2.586;2023-04-25T07:34:54;8.15;;;2.10;;
66966;SDS011;53900;51.468;-2.586;2023-04-25T07:37:19;10.00;;;2.50;;
66966;SDS011;53900;51.468;-2.586;2023-04-25T07:39:44;8.60;;;1.95;;
66966;SDS011;53900;51.468;-2.586;2023-04-25T07:42:12;10.07;;;2.10;;
66966;SDS011;53900;51.468;-2.586;2023-04-25T07:44:38;12.35;;;2.70;;
66966;SDS011;53900;51.468;-2.586;2023-04-25T07:47:05;11.82;;;2.00;;
66966;SDS011;53900;51.468;-2.586;2023-04-25T07:49:32;18.88;;;2.47;;
66966;SDS011;53900;51.468;-2.586;2023-04-25T07:51:57;10.52;;;2.30;;
66966;SDS011;53900;51.468;-2.586;2023-04-25T07:54:22;8.35;;;2.42;;
66966;SDS011;53900;51.468;-2.586;2023-04-25T07:56:47;9.88;;;2.08;;
66966;SDS011;53900;51.468;-2.586;2023-04-25T07:59:13;6.82;;;1.77;;
66966;SDS011;53900;51.468;-2.586;2023-04-25T08:01:38;20.13;;;2.78;;
66966;SDS011;53900;51.468;-2.586;2023-04-25T08:04:03;9.93;;;2.30;;
66966;SDS011;53900;51.468;-2.586;2023-04-25T08:06:28;6.50;;;1.60;;
66966;SDS011;53900;51.468;-2.586;2023-04-25T08:08:53;9.45;;;1.90;;
66966;SDS011;53900;51.468;-2.586;2023-04-25T08:11:19;11.10;;;2.58;;
66966;SDS011;53900;51.468;-2.586;2023-04-25T08:13:44;11.00;;;1.98;;
66966;SDS011;53900;51.468;-2.586;2023-04-25T08:16:09;6.53;;;1.77;;
66966;SDS011;53900;51.468;-2.586;2023-04-25T08:18:34;7.93;;;1.98;;
66966;SDS011;53900;51.468;-2.586;2023-04-25T08:21:00;9.18;;;1.65;;
66966;SDS011;53900;51.468;-2.586;2023-04-25T08:23:25;5.13;;;1.63;;
66966;SDS011;53900;51.468;-2.586;2023-04-25T08:25:50;5.75;;;1.73;;
66966;SDS011;53900;51.468;-2.586;2023-04-25T08:28:15;7.78;;;1.70;;
66966;SDS011;53900;51.468;-2.586;2023-04-25T08:30:41;4.38;;;1.42;;
66966;SDS011;53900;51.468;-2.586;2023-04-25T08:33:06;7.30;;;1.92;;
66966;SDS011;53900;51.468;-2.586;2023-04-25T08:35:31;6.82;;;1.70;;
66966;SDS011;53900;51.468;-2.586;2023-04-25T08:37:58;4.20;;;1.67;;
66966;SDS011;53900;51.468;-2.586;2023-04-25T08:40:23;13.23;;;2.20;;
66966;SDS011;53900;51.468;-2.586;2023-04-25T08:42:53;13.43;;;1.75;;
66966;SDS011;53900;51.468;-2.586;2023-04-25T08:45:19;6.68;;;1.60;;
66966;SDS011;53900;51.468;-2.586;2023-04-25T08:47:45;6.38;;;1.25;;
66966;SDS011;53900;51.468;-2.586;2023-04-25T08:50:10;2.90;;;0.95;;
66966;SDS011;53900;51.468;-2.586;2023-04-25T08:52:36;3.75;;;1.13;;
66966;SDS011;53900;51.468;-2.586;2023-04-25T08:55:02;3.53;;;1.40;;
66966;SDS011;53900;51.468;-2.586;2023-04-25T08:57:28;8.07;;;1.30;;
66966;SDS011;53900;51.468;-2.586;2023-04-25T08:59:54;3.50;;;1.17;;
66966;SDS011;53900;51.468;-2.586;2023-04-25T09:02:20;5.05;;;1.13;;
66966;SDS011;53900;51.468;-2.586;2023-04-25T09:04:45;3.67;;;1.20;;
66966;SDS011;53900;51.468;-2.586;2023-04-25T09:07:11;7.38;;;1.42;;
66966;SDS011;53900;51.468;-2.586;2023-04-25T09:09:36;3.70;;;1.17;;
66966;SDS011;53900;51.468;-2.586;2023-04-25T09:12:01;3.30;;;1.00;;
66966;SDS011;53900;51.468;-2.586;2023-04-25T09:14:26;5.55;;;0.95;;
66966;SDS011;53900;51.468;-2.586;2023-04-25T09:19:24;7.78;;;1.20;;
66966;SDS011;53900;51.468;-2.586;2023-04-25T09:21:50;5.43;;;1.10;;
66966;SDS011;53900;51.468;-2.586;2023-04-25T09:24:15;6.05;;;1.25;;
66966;SDS011;53900;51.468;-2.586;2023-04-25T09:26:40;5.95;;;1.20;;
66966;SDS011;53900;51.468;-2.586;2023-04-25T09:29:06;4.25;;;1.05;;
66966;SDS011;53900;51.468;-2.586;2023-04-25T09:31:32;3.05;;;0.95;;
66966;SDS011;53900;51.468;-2.586;2023-04-25T09:34:01;5.93;;;1.00;;
66966;SDS011;53900;51.468;-2.586;2023-04-25T09:36:26;3.08;;;0.88;;
66966;SDS011;53900;51.468;-2.586;2023-04-25T09:38:52;3.83;;;1.20;;
66966;SDS011;53900;51.468;-2.586;2023-04-25T09:41:22;3.83;;;1.17;;
66966;SDS011;53900;51.468;-2.586;2023-04-25T09:43:48;3.70;;;1.30;;
66966;SDS011;53900;51.468;-2.586;2023-04-25T09:46:14;4.10;;;1.30;;
66966;SDS011;53900;51.468;-2.586;2023-04-25T09:48:39;9.25;;;1.10;;
66966;SDS011;53900;51.468;-2.586;2023-04-25T09:51:11;5.22;;;1.10;;
66966;SDS011;53900;51.468;-2.586;2023-04-25T09:53:40;4.38;;;1.23;;
66966;SDS011;53900;51.468;-2.586;2023-04-25T09:56:06;2.67;;;0.80;;
66966;SDS011;53900;51.468;-2.586;2023-04-25T09:58:32;2.83;;;0.95;;
66966;SDS011;53900;51.468;-2.586;2023-04-25T10:00:59;4.45;;;1.00;;
66966;SDS011;53900;51.468;-2.586;2023-04-25T10:03:25;4.00;;;0.98;;
66966;SDS011;53900;51.468;-2.586;2023-04-25T10:05:50;2.17;;;0.68;;
66966;SDS011;53900;51.468;-2.586;2023-04-25T10:08:17;2.83;;;0.93;;
66966;SDS011;53900;51.468;-2.586;2023-04-25T10:10:42;3.85;;;1.17;;
66966;SDS011;53900;51.468;-2.586;2023-04-25T10:13:08;2.30;;;0.85;;
66966;SDS011;53900;51.468;-2.586;2023-04-25T10:15:34;4.13;;;0.70;;
66966;SDS011;53900;51.468;-2.586;2023-04-25T10:18:00;4.22;;;0.90;;
66966;SDS011;53900;51.468;-2.586;2023-04-25T10:20:26;1.90;;;0.85;;
66966;SDS011;53900;51.468;-2.586;2023-04-25T10:22:51;5.07;;;1.08;;
66966;SDS011;53900;51.468;-2.586;2023-04-25T10:25:19;3.05;;;1.10;;
66966;SDS011;53900;51.468;-2.586;2023-04-25T10:27:44;3.25;;;1.00;;
66966;SDS011;53900;51.468;-2.586;2023-04-25T10:30:10;3.97;;;0.93;;
66966;SDS011;53900;51.468;-2.586;2023-04-25T10:32:39;3.72;;;1.10;;
66966;SDS011;53900;51.468;-2.586;2023-04-25T10:35:17;3.28;;;0.88;;
66966;SDS011;53900;51.468;-2.586;2023-04-25T10:40:37;4.90;;;0.85;;
66966;SDS011;53900;51.468;-2.586;2023-04-25T10:45:52;3.45;;;1.02;;
66966;SDS011;53900;51.468;-2.586;2023-04-25T10:48:24;2.17;;;0.73;;
66966;SDS011;53900;51.468;-2.586;2023-04-25T10:50:50;3.03;;;0.88;;
66966;SDS011;53900;51.468;-2.586;2023-04-25T10:53:26;4.82;;;1.02;;
66966;SDS011;53900;51.468;-2.586;2023-04-25T10:55:55;4.93;;;1.00;;
66966;SDS011;53900;51.468;-2.586;2023-04-25T10:58:22;3.05;;;0.80;;
66966;SDS011;53900;51.468;-2.586;2023-04-25T11:00:47;6.22;;;1.10;;
66966;SDS011;53900;51.468;-2.586;2023-04-25T11:03:16;2.67;;;0.93;;
66966;SDS011;53900;51.468;-2.586;2023-04-25T11:05:41;1.08;;;0.80;;
66966;SDS011;53900;51.468;-2.586;2023-04-25T11:08:10;3.28;;;1.00;;
66966;SDS011;53900;51.468;-2.586;2023-04-25T11:10:36;3.70;;;1.10;;
66966;SDS011;53900;51.468;-2.586;2023-04-25T11:13:01;2.00;;;1.00;;
66966;SDS011;53900;51.468;-2.586;2023-04-25T11:15:26;1.83;;;0.82;;
66966;SDS011;53900;51.468;-2.586;2023-04-25T11:17:52;2.05;;;0.93;;
66966;SDS011;53900;51.468;-2.586;2023-04-25T11:20:18;3.67;;;1.20;;
66966;SDS011;53900;51.468;-2.586;2023-04-25T11:22:44;1.88;;;0.80;;
66966;SDS011;53900;51.468;-2.586;2023-04-25T11:25:10;2.85;;;0.80;;
66966;SDS011;53900;51.468;-2.586;2023-04-25T11:30:21;1.75;;;0.80;;
66966;SDS011;53900;51.468;-2.586;2023-04-25T11:32:47;7.35;;;3.58;;
66966;SDS011;53900;51.468;-2.586;2023-04-25T11:35:12;4.75;;;1.13;;
66966;SDS011;53900;51.468;-2.586;2023-04-25T11:37:41;1.45;;;0.80;;
66966;SDS011;53900;51.468;-2.586;2023-04-25T11:40:06;3.22;;;1.00;;
66966;SDS011;53900;51.468;-2.586;2023-04-25T11:42:32;6.00;;;1.48;;
66966;SDS011;53900;51.468;-2.586;2023-04-25T11:44:58;4.88;;;1.40;;
66966;SDS011;53900;51.468;-2.586;2023-04-25T11:47:28;5.18;;;1.20;;
66966;SDS011;53900;51.468;-2.586;2023-04-25T11:49:53;4.05;;;1.10;;
66966;SDS011;53900;51.468;-2.586;2023-04-25T11:52:18;1.02;;;0.70;;
66966;SDS011;53900;51.468;-2.586;2023-04-25T11:54:44;2.33;;;1.00;;
66966;SDS011;53900;51.468;-2.586;2023-04-25T11:57:09;5.32;;;0.90;;
66966;SDS011;53900;51.468;-2.586;2023-04-25T11:59:34;2.00;;;0.90;;
66966;SDS011;53900;51.468;-2.586;2023-04-25T12:02:00;1.55;;;0.80;;
66966;SDS011;53900;51.468;-2.586;2023-04-25T12:04:29;6.43;;;1.17;;
66966;SDS011;53900;51.468;-2.586;2023-04-25T12:06:55;2.25;;;0.70;;
66966;SDS011;53900;51.468;-2.586;2023-04-25T12:09:41;1.77;;;0.90;;
66966;SDS011;53900;51.468;-2.586;2023-04-25T12:12:09;2.90;;;0.90;;
66966;SDS011;53900;51.468;-2.586;2023-04-25T12:14:35;1.92;;;0.80;;
66966;SDS011;53900;51.468;-2.586;2023-04-25T12:17:01;3.58;;;1.00;;
66966;SDS011;53900;51.468;-2.586;2023-04-25T12:19:31;2.30;;;1.17;;
66966;SDS011;53900;51.468;-2.586;2023-04-25T12:21:57;3.15;;;0.93;;
66966;SDS011;53900;51.468;-2.586;2023-04-25T12:24:23;4.53;;;0.90;;
66966;SDS011;53900;51.468;-2.586;2023-04-25T12:29:25;5.47;;;0.90;;
66966;SDS011;53900;51.468;-2.586;2023-04-25T12:31:51;5.70;;;1.08;;
66966;SDS011;53900;51.468;-2.586;2023-04-25T12:34:17;4.18;;;1.10;;
66966;SDS011;53900;51.468;-2.586;2023-04-25T12:36:42;4.63;;;1.00;;
66966;SDS011;53900;51.468;-2.586;2023-04-25T12:39:07;3.15;;;0.95;;
66966;SDS011;53900;51.468;-2.586;2023-04-25T12:41:33;2.95;;;1.10;;
66966;SDS011;53900;51.468;-2.586;2023-04-25T12:43:58;4.57;;;1.10;;
66966;SDS011;53900;51.468;-2.586;2023-04-25T12:46:24;1.98;;;0.75;;
66966;SDS011;53900;51.468;-2.586;2023-04-25T12:48:49;3.50;;;0.90;;
66966;SDS011;53900;51.468;-2.586;2023-04-25T12:51:14;4.93;;;1.00;;
66966;SDS011;53900;51.468;-2.586;2023-04-25T12:53:40;3.85;;;1.10;;
66966;SDS011;53900;51.468;-2.586;2023-04-25T12:56:06;4.57;;;1.30;;
66966;SDS011;53900;51.468;-2.586;2023-04-25T12:58:31;2.83;;;0.95;;
66966;SDS011;53900;51.468;-2.586;2023-04-25T13:00:58;2.97;;;1.10;;
66966;SDS011;53900;51.468;-2.586;2023-04-25T13:03:23;4.25;;;1.15;;
66966;SDS011;53900;51.468;-2.586;2023-04-25T13:05:49;2.75;;;1.00;;
66966;SDS011;53900;51.468;-2.586;2023-04-25T13:08:15;1.65;;;0.95;;
66966;SDS011;53900;51.468;-2.586;2023-04-25T13:10:40;3.53;;;1.10;;
66966;SDS011;53900;51.468;-2.586;2023-04-25T13:13:06;4.35;;;1.20;;
66966;SDS011;53900;51.468;-2.586;2023-04-25T13:15:32;2.10;;;0.88;;
66966;SDS011;53900;51.468;-2.586;2023-04-25T13:17:57;2.58;;;0.75;;
66966;SDS011;53900;51.468;-2.586;2023-04-25T13:20:22;3.45;;;0.90;;
66966;SDS011;53900;51.468;-2.586;2023-04-25T13:22:47;3.22;;;1.00;;
66966;SDS011;53900;51.468;-2.586;2023-04-25T13:25:13;4.25;;;1.00;;
66966;SDS011;53900;51.468;-2.586;2023-04-25T13:27:38;3.65;;;0.80;;
66966;SDS011;53900;51.468;-2.586;2023-04-25T13:30:05;2.92;;;1.10;;
66966;SDS011;53900;51.468;-2.586;2023-04-25T13:32:34;4.43;;;1.15;;
66966;SDS011;53900;51.468;-2.586;2023-04-25T13:35:01;2.35;;;1.00;;
66966;SDS011;53900;51.468;-2.586;2023-04-25T13:37:27;3.30;;;1.05;;
66966;SDS011;53900;51.468;-2.586;2023-04-25T13:39:52;4.68;;;1.23;;
66966;SDS011;53900;51.468;-2.586;2023-04-25T13:42:20;1.73;;;0.90;;
66966;SDS011;53900;51.468;-2.586;2023-04-25T13:44:45;3.53;;;1.00;;
66966;SDS011;53900;51.468;-2.586;2023-04-25T13:47:10;3.60;;;0.80;;
66966;SDS011;53900;51.468;-2.586;2023-04-25T13:49:36;1.67;;;1.05;;
66966;SDS011;53900;51.468;-2.586;2023-04-25T13:52:01;8.15;;;0.90;;
66966;SDS011;53900;51.468;-2.586;2023-04-25T13:54:27;1.77;;;1.00;;
66966;SDS011;53900;51.468;-2.586;2023-04-25T13:56:52;7.07;;;1.00;;
66966;SDS011;53900;51.468;-2.586;2023-04-25T13:59:20;2.70;;;0.88;;
66966;SDS011;53900;51.468;-2.586;2023-04-25T14:01:45;2.67;;;0.80;;
66966;SDS011;53900;51.468;-2.586;2023-04-25T14:04:11;7.13;;;0.88;;
66966;SDS011;53900;51.468;-2.586;2023-04-25T14:06:36;5.57;;;1.00;;
66966;SDS011;53900;51.468;-2.586;2023-04-25T14:09:01;2.10;;;1.00;;
66966;SDS011;53900;51.468;-2.586;2023-04-25T14:11:28;3.50;;;0.80;;
66966;SDS011;53900;51.468;-2.586;2023-04-25T14:13:53;2.08;;;0.93;;
66966;SDS011;53900;51.468;-2.586;2023-04-25T14:16:18;5.30;;;1.02;;
66966;SDS011;53900;51.468;-2.586;2023-04-25T14:18:44;4.57;;;2.70;;
66966;SDS011;53900;51.468;-2.586;2023-04-25T14:21:09;2.00;;;0.70;;
66966;SDS011;53900;51.468;-2.586;2023-04-25T14:23:35;1.70;;;1.00;;
66966;SDS011;53900;51.468;-2.586;2023-04-25T14:26:00;2.15;;;0.80;;
66966;SDS011;53900;51.468;-2.586;2023-04-25T14:28:25;2.63;;;1.02;;
66966;SDS011;53900;51.468;-2.586;2023-04-25T14:30:50;5.65;;;0.90;;
66966;SDS011;53900;51.468;-2.586;2023-04-25T14:33:16;2.50;;;1.00;;